Time;durP1;ratioP1;P1;durP2;ratioP2;P2;SDS_P1;SDS_P2;PMS_P1;PMS_P2;Temp;Humidity;BMP_temperature;BMP_pressure;BME280_temperature;BME280_humidity;BME280_pressure;Samples;Min_cycle;Max_cycle;Signal;HPM_P1;HPM_P2
2024/01/17 00:01:35;;;;;;;14.73;5.10;;;-1.70;99.90;;;;;;4220251;28;20923;-82
2024/01/17 00:03:36;;;;;;;14.40;5.17;;;-1.70;99.90;;;;;;4201975;28;20577;-82
2024/01/17 00:05:38;;;;;;;19.33;6.40;;;-1.70;99.90;;;;;;4201850;28;20434;-82
2024/01/17 00:07:40;;;;;;;16.37;5.80;;;-1.70;99.90;;;;;;4201693;28;20290;-79
2024/01/17 00:09:42;;;;;;;10.17;5.57;;;-1.70;99.90;;;;;;4194404;28;20511;-79
2024/01/17 00:11:46;;;;;;;15.33;6.00;;;-1.70;99.90;;;;;;4199944;28;20462;-82
2024/01/17 00:13:47;;;;;;;12.47;5.07;;;-1.30;99.90;;;;;;4201775;28;20467;-82
2024/01/17 00:15:49;;;;;;;13.50;6.17;;;-1.70;99.90;;;;;;4203338;28;20508;-82
2024/01/17 00:17:51;;;;;;;12.13;5.50;;;-1.70;99.90;;;;;;4205006;28;20297;-82
2024/01/17 00:19:53;;;;;;;16.33;6.03;;;-1.80;99.90;;;;;;4221495;28;20456;-79
2024/01/17 00:21:55;;;;;;;11.97;5.50;;;-1.80;99.90;;;;;;4201379;28;20491;-82
2024/01/17 00:23:57;;;;;;;12.20;6.07;;;-1.50;99.90;;;;;;4221558;28;20476;-82
2024/01/17 00:26:00;;;;;;;13.70;5.23;;;-1.80;99.90;;;;;;4221823;28;20464;-82
2024/01/17 00:28:02;;;;;;;16.80;5.90;;;-0.90;99.90;;;;;;4225654;28;20450;-83
2024/01/17 00:30:06;;;;;;;15.30;5.50;;;-1.80;99.90;;;;;;4226574;28;20498;-83
2024/01/17 00:32:08;;;;;;;14.57;5.83;;;-1.90;99.90;;;;;;4225524;28;20443;-83
2024/01/17 00:34:10;;;;;;;13.50;5.83;;;-1.80;99.90;;;;;;4225393;28;20506;-83
2024/01/17 00:36:12;;;;;;;13.27;6.17;;;-1.80;99.90;;;;;;4229070;28;20433;-82
2024/01/17 00:38:14;;;;;;;12.23;5.57;;;-1.80;99.90;;;;;;4206498;28;20449;-82
2024/01/17 00:40:15;;;;;;;11.83;5.80;;;-1.80;99.90;;;;;;4220965;28;20519;-82
2024/01/17 00:42:17;;;;;;;16.33;5.97;;;-1.80;99.90;;;;;;4218555;28;20999;-82
2024/01/17 00:44:21;;;;;;;15.03;6.03;;;-1.90;99.90;;;;;;4218155;28;20562;-82
2024/01/17 00:46:23;;;;;;;19.23;6.00;;;-1.90;99.90;;;;;;4219793;28;20525;-82
2024/01/17 00:48:25;;;;;;;16.10;5.60;;;-1.90;99.90;;;;;;4221304;28;20448;-82
2024/01/17 00:50:27;;;;;;;18.67;6.63;;;-1.90;99.90;;;;;;4200213;28;20450;-83
2024/01/17 00:52:29;;;;;;;13.73;6.10;;;-1.90;99.90;;;;;;4201946;28;20464;-82
2024/01/17 00:54:30;;;;;;;15.90;6.43;;;-1.90;99.90;;;;;;4199321;28;20465;-82
2024/01/17 00:56:35;;;;;;;15.83;6.60;;;-1.90;99.90;;;;;;4201919;28;20460;-82
2024/01/17 00:58:37;;;;;;;15.90;6.27;;;-1.90;99.90;;;;;;4202751;28;20337;-82
2024/01/17 01:00:40;;;;;;;15.20;6.87;;;-1.90;99.90;;;;;;4202243;28;20456;-82
2024/01/17 01:02:43;;;;;;;14.97;6.10;;;-2.00;99.90;;;;;;4202779;28;20446;-79
2024/01/17 01:04:44;;;;;;;14.20;5.93;;;-1.90;99.90;;;;;;4201343;28;20519;-80
2024/01/17 01:06:46;;;;;;;17.23;6.27;;;-1.80;99.90;;;;;;4219675;28;20480;-80
2024/01/17 01:08:48;;;;;;;15.00;6.43;;;-2.00;99.90;;;;;;4204379;28;20203;-80
2024/01/17 01:10:49;;;;;;;12.13;6.10;;;-2.00;99.90;;;;;;4223464;28;20526;-80
2024/01/17 01:12:51;;;;;;;15.63;5.83;;;-2.00;99.90;;;;;;4204937;28;20882;-80
2024/01/17 01:14:53;;;;;;;13.80;6.20;;;-2.00;99.90;;;;;;4221663;28;20555;-80
2024/01/17 01:16:56;;;;;;;13.93;6.30;;;-2.00;99.90;;;;;;4221262;28;20464;-81
2024/01/17 01:18:58;;;;;;;15.57;6.13;;;-1.50;99.90;;;;;;4198948;28;20543;-82
2024/01/17 01:21:00;;;;;;;21.33;6.63;;;-2.00;99.90;;;;;;4213996;28;20452;-82
2024/01/17 01:23:02;;;;;;;15.83;6.27;;;-1.60;99.90;;;;;;4218432;28;20447;-82
2024/01/17 01:25:05;;;;;;;14.80;6.43;;;-2.00;99.90;;;;;;4196093;28;20527;-82
2024/01/17 01:27:07;;;;;;;16.50;6.03;;;-2.00;99.90;;;;;;4199800;28;20478;-82
2024/01/17 01:29:09;;;;;;;12.47;6.33;;;-2.10;99.90;;;;;;4219177;28;20443;-82
2024/01/17 01:31:11;;;;;;;12.83;6.43;;;-2.10;99.90;;;;;;4219972;28;20456;-82
2024/01/17 01:33:15;;;;;;;14.20;6.00;;;-2.10;99.90;;;;;;4227943;28;20457;-83
2024/01/17 01:35:17;;;;;;;15.03;6.23;;;-2.20;99.90;;;;;;4217779;28;20457;-82
2024/01/17 01:37:19;;;;;;;17.03;6.40;;;-2.20;99.90;;;;;;4216938;28;20967;-82
2024/01/17 01:39:20;;;;;;;11.93;6.57;;;-2.00;99.90;;;;;;4216503;28;20851;-81
2024/01/17 01:41:22;;;;;;;15.50;5.80;;;-1.70;99.90;;;;;;4217664;28;20452;-82
2024/01/17 01:43:24;;;;;;;13.93;6.37;;;-2.20;99.90;;;;;;4197629;28;20480;-82
2024/01/17 01:45:26;;;;;;;17.40;5.57;;;-1.80;99.90;;;;;;4216769;28;20456;-82
2024/01/17 01:47:29;;;;;;;14.87;6.53;;;-2.10;99.90;;;;;;4193830;28;20875;-83
2024/01/17 01:49:31;;;;;;;15.30;6.23;;;-1.90;99.90;;;;;;4216252;28;20509;-82
2024/01/17 01:51:33;;;;;;;13.40;6.47;;;-2.20;99.90;;;;;;4217780;28;20853;-83
2024/01/17 01:53:36;;;;;;;11.20;5.87;;;-1.30;99.90;;;;;;4197882;28;20464;-82
2024/01/17 01:55:38;;;;;;;17.13;5.67;;;-2.30;99.90;;;;;;4198974;28;20464;-82
2024/01/17 01:57:46;;;;;;;16.07;5.87;;;-2.20;99.90;;;;;;4217393;28;20479;-82
2024/01/17 01:59:48;;;;;;;19.13;6.57;;;-1.90;99.90;;;;;;4217162;28;20458;-82
2024/01/17 02:01:50;;;;;;;19.87;6.27;;;-2.30;99.90;;;;;;4215868;28;21556;-82
2024/01/17 02:03:54;;;;;;;11.10;5.23;;;-2.20;99.90;;;;;;4197586;28;20480;-82
2024/01/17 02:05:57;;;;;;;16.07;5.80;;;-2.30;99.90;;;;;;4215640;28;20520;-82
2024/01/17 02:08:01;;;;;;;11.47;4.80;;;-2.30;99.90;;;;;;4215309;28;20506;-83
2024/01/17 02:10:04;;;;;;;15.67;6.17;;;-2.30;99.90;;;;;;4216505;28;20471;-82
2024/01/17 02:12:09;;;;;;;15.83;5.53;;;-2.40;99.90;;;;;;4213513;28;20453;-82
2024/01/17 02:14:11;;;;;;;15.53;5.57;;;-2.40;99.90;;;;;;4215278;28;20959;-82
2024/01/17 02:16:17;;;;;;;14.27;5.50;;;-2.50;99.90;;;;;;4197793;28;20629;-83
2024/01/17 02:18:21;;;;;;;14.30;5.70;;;-2.40;99.90;;;;;;4214937;28;20453;-83
2024/01/17 02:20:24;;;;;;;12.40;5.90;;;-2.40;99.90;;;;;;4199397;28;20444;-82
2024/01/17 02:22:26;;;;;;;15.53;6.03;;;-2.40;99.90;;;;;;4217732;28;20515;-81
2024/01/17 02:24:31;;;;;;;12.40;5.10;;;-2.50;99.90;;;;;;4216017;28;20480;-82
2024/01/17 02:26:33;;;;;;;18.73;5.87;;;-2.20;99.90;;;;;;4213198;28;20474;-82
2024/01/17 02:28:35;;;;;;;13.80;5.43;;;-2.00;99.90;;;;;;4213930;28;20471;-82
2024/01/17 02:30:37;;;;;;;13.07;5.87;;;-2.50;99.90;;;;;;4196232;28;20452;-82
2024/01/17 02:32:45;;;;;;;19.77;5.73;;;-2.60;99.90;;;;;;4215169;28;20832;-82
2024/01/17 02:34:47;;;;;;;11.03;5.50;;;-2.40;99.90;;;;;;4204215;28;20820;-82
2024/01/17 02:36:49;;;;;;;19.90;7.13;;;-1.60;99.90;;;;;;4200273;28;20475;-83
2024/01/17 02:38:51;;;;;;;14.37;5.93;;;-2.10;99.90;;;;;;4197132;28;20446;-82
2024/01/17 02:40:54;;;;;;;11.63;5.33;;;-2.60;99.90;;;;;;4214404;28;21004;-82
2024/01/17 02:42:55;;;;;;;13.40;5.60;;;-2.70;99.90;;;;;;4212876;28;20447;-82
2024/01/17 02:44:57;;;;;;;12.63;5.50;;;-2.70;99.90;;;;;;4218808;28;20467;-84
2024/01/17 02:46:59;;;;;;;10.17;5.67;;;-2.70;99.90;;;;;;4222621;28;20229;-82
2024/01/17 02:49:01;;;;;;;11.37;5.77;;;-2.70;99.90;;;;;;4224959;28;20490;-83
2024/01/17 02:51:03;;;;;;;14.63;5.33;;;-2.70;99.90;;;;;;4226852;28;20448;-83
2024/01/17 02:53:06;;;;;;;11.73;5.10;;;-2.70;99.90;;;;;;4208448;28;20468;-84
2024/01/17 02:55:08;;;;;;;11.23;5.20;;;-1.90;99.90;;;;;;4226839;28;20434;-83
2024/01/17 02:57:12;;;;;;;11.40;5.03;;;-2.80;99.90;;;;;;4201836;28;20460;-82
2024/01/17 02:59:14;;;;;;;13.03;5.47;;;-2.80;99.90;;;;;;4215941;28;20436;-82
2024/01/17 03:01:16;;;;;;;11.10;5.33;;;-2.90;99.90;;;;;;4214792;28;20467;-82
2024/01/17 03:03:18;;;;;;;13.20;5.20;;;-2.90;99.90;;;;;;4197269;28;20456;-83
2024/01/17 03:05:20;;;;;;;12.00;5.40;;;-2.30;99.90;;;;;;4196420;28;20901;-82
2024/01/17 03:07:21;;;;;;;10.20;5.13;;;-2.90;99.90;;;;;;4197723;28;20500;-83
2024/01/17 03:09:23;;;;;;;13.57;5.17;;;-3.00;99.90;;;;;;4196416;28;20464;-83
2024/01/17 03:11:25;;;;;;;13.90;5.73;;;-3.00;99.90;;;;;;4197454;28;20452;-83
2024/01/17 03:13:29;;;;;;;13.00;5.03;;;-3.00;99.90;;;;;;4216136;28;20512;-83
2024/01/17 03:15:31;;;;;;;15.20;5.57;;;-3.00;99.90;;;;;;4217017;28;20483;-83
2024/01/17 03:17:32;;;;;;;12.00;5.07;;;-3.00;99.90;;;;;;4197281;28;20468;-83
2024/01/17 03:19:34;;;;;;;12.30;4.97;;;-2.20;99.90;;;;;;4195515;28;20449;-83
2024/01/17 03:21:36;;;;;;;11.83;4.83;;;-2.40;99.90;;;;;;4202357;28;20448;-84
2024/01/17 03:23:38;;;;;;;11.50;5.10;;;-3.00;99.90;;;;;;4205921;28;20538;-84
2024/01/17 03:25:40;;;;;;;14.53;5.27;;;-2.80;99.90;;;;;;4220632;28;20478;-84
2024/01/17 03:27:41;;;;;;;12.83;4.70;;;-2.60;99.90;;;;;;4188970;28;20476;-83
2024/01/17 03:29:45;;;;;;;13.00;4.87;;;-2.80;99.90;;;;;;4217545;28;20443;-83
2024/01/17 03:31:47;;;;;;;13.33;5.30;;;-3.10;99.90;;;;;;4200899;28;20462;-84
2024/01/17 03:33:49;;;;;;;10.70;4.77;;;-3.10;99.90;;;;;;4226113;28;20519;-84
2024/01/17 03:35:51;;;;;;;10.97;5.00;;;-2.70;99.90;;;;;;4221972;28;20496;-83
2024/01/17 03:37:53;;;;;;;13.10;5.00;;;-2.70;99.90;;;;;;4199159;28;20594;-84
2024/01/17 03:39:54;;;;;;;11.50;5.50;;;-3.10;99.90;;;;;;4195312;28;20487;-83
2024/01/17 03:41:56;;;;;;;11.37;4.80;;;-2.20;99.90;;;;;;4213950;28;20448;-82
2024/01/17 03:43:59;;;;;;;11.10;4.70;;;-3.10;99.90;;;;;;4195337;28;20268;-83
2024/01/17 03:46:02;;;;;;;14.33;5.13;;;-3.10;99.90;;;;;;4191429;28;20476;-83
2024/01/17 03:48:06;;;;;;;14.07;4.90;;;-2.70;99.90;;;;;;4208723;28;20478;-83
2024/01/17 03:50:09;;;;;;;10.00;4.90;;;-3.10;99.90;;;;;;4211980;28;20469;-83
2024/01/17 03:52:11;;;;;;;14.40;5.40;;;-3.10;99.90;;;;;;4189242;28;21360;-83
2024/01/17 03:54:13;;;;;;;10.87;4.80;;;-3.20;99.90;;;;;;4194298;28;20457;-84
2024/01/17 03:56:15;;;;;;;10.27;4.37;;;-3.20;99.90;;;;;;4192775;28;20484;-84
2024/01/17 03:58:17;;;;;;;11.10;4.57;;;-2.80;99.90;;;;;;4194607;28;20449;-83
2024/01/17 04:00:19;;;;;;;11.20;4.63;;;-3.20;99.90;;;;;;4193282;28;20578;-84
2024/01/17 04:02:22;;;;;;;9.80;4.17;;;-3.20;99.90;;;;;;4194382;28;20453;-84
2024/01/17 04:04:24;;;;;;;12.63;5.20;;;-3.20;99.90;;;;;;4193381;28;20479;-84
2024/01/17 04:06:28;;;;;;;11.60;5.03;;;-2.10;99.90;;;;;;4209247;28;20483;-86
2024/01/17 04:08:30;;;;;;;10.27;4.57;;;-3.30;99.90;;;;;;4197015;28;20514;-84
2024/01/17 04:10:32;;;;;;;8.60;4.70;;;-3.30;99.90;;;;;;4194545;28;20450;-84
2024/01/17 04:12:34;;;;;;;11.30;4.60;;;-3.30;99.90;;;;;;4188731;28;21145;-83
2024/01/17 04:14:36;;;;;;;10.57;4.83;;;-3.30;99.90;;;;;;4211324;28;20487;-83
2024/01/17 04:16:36;;;;;;;11.17;5.13;;;-3.30;99.90;;;;;;4194742;28;20468;-84
2024/01/17 04:18:40;;;;;;;18.50;5.10;;;-3.30;99.90;;;;;;4192508;28;20530;-85
2024/01/17 04:20:42;;;;;;;11.63;5.10;;;-3.30;99.90;;;;;;4211070;28;20205;-83
2024/01/17 04:22:44;;;;;;;14.87;5.43;;;-3.30;99.90;;;;;;4191712;28;20456;-84
2024/01/17 04:24:48;;;;;;;10.97;4.93;;;-2.30;99.90;;;;;;4209535;28;20483;-84
2024/01/17 04:26:49;;;;;;;20.10;5.60;;;-3.20;99.90;;;;;;4186497;28;20483;-84
2024/01/17 04:28:51;;;;;;;12.03;4.80;;;-3.20;99.90;;;;;;4207752;28;20455;-84
2024/01/17 04:30:52;;;;;;;12.30;4.97;;;-3.30;99.90;;;;;;4188619;28;20449;-83
2024/01/17 04:32:54;;;;;;;12.57;5.30;;;-3.10;99.90;;;;;;4211353;28;20438;-83
2024/01/17 04:34:58;;;;;;;12.80;5.17;;;-3.30;99.90;;;;;;4189888;28;20210;-84
2024/01/17 04:37:00;;;;;;;12.57;5.10;;;-3.30;99.90;;;;;;4206999;28;20513;-83
2024/01/17 04:39:00;;;;;;;13.90;5.27;;;-3.30;99.90;;;;;;4193261;28;20495;-84
2024/01/17 04:41:03;;;;;;;9.80;5.27;;;-3.30;99.90;;;;;;4190479;28;20436;-84
2024/01/17 04:43:05;;;;;;;15.30;5.37;;;-3.30;99.90;;;;;;4191198;28;20444;-83
2024/01/17 04:45:08;;;;;;;17.33;6.27;;;-2.80;99.90;;;;;;4214333;28;20565;-83
2024/01/17 04:47:09;;;;;;;16.40;6.07;;;-3.30;99.90;;;;;;4198088;28;20530;-83
2024/01/17 04:49:11;;;;;;;11.70;5.37;;;-3.30;99.90;;;;;;4200746;28;21187;-84
2024/01/17 04:51:15;;;;;;;12.20;5.33;;;-3.30;99.90;;;;;;4197996;28;20452;-84
2024/01/17 04:53:16;;;;;;;18.97;5.73;;;-3.30;99.90;;;;;;4197174;28;20567;-83
2024/01/17 04:55:18;;;;;;;15.83;6.00;;;-3.30;99.90;;;;;;4198243;28;20456;-83
2024/01/17 04:57:20;;;;;;;14.07;5.87;;;-3.30;99.90;;;;;;4195379;28;20248;-84
2024/01/17 04:59:22;;;;;;;14.00;6.40;;;-3.30;99.90;;;;;;4214926;28;20454;-84
2024/01/17 05:01:25;;;;;;;13.37;5.33;;;-3.40;99.90;;;;;;4215847;28;20474;-83
2024/01/17 05:03:27;;;;;;;21.27;6.17;;;-3.30;99.90;;;;;;4198747;28;20569;-84
2024/01/17 05:05:29;;;;;;;13.93;5.80;;;-3.30;99.90;;;;;;4216724;28;20502;-83
2024/01/17 05:07:32;;;;;;;13.40;6.47;;;-2.30;99.90;;;;;;4216668;28;20533;-85
2024/01/17 05:09:35;;;;;;;13.83;6.30;;;-2.30;99.90;;;;;;4218858;28;20436;-83
2024/01/17 05:11:36;;;;;;;15.83;6.53;;;-3.00;99.90;;;;;;4201941;28;20452;-84
2024/01/17 05:13:39;;;;;;;17.90;6.60;;;-3.30;99.90;;;;;;4206028;28;20531;-86
2024/01/17 05:15:41;;;;;;;17.00;7.07;;;-2.80;99.90;;;;;;4204010;28;20695;-85
2024/01/17 05:17:43;;;;;;;16.67;6.80;;;-2.90;99.90;;;;;;4216877;28;20505;-83
2024/01/17 05:19:45;;;;;;;17.17;6.47;;;-3.30;99.90;;;;;;4197675;28;20452;-83
2024/01/17 05:21:47;;;;;;;17.23;6.07;;;-3.30;99.90;;;;;;4218380;28;20446;-85
2024/01/17 05:23:51;;;;;;;11.90;6.40;;;-3.40;99.90;;;;;;4215780;28;20522;-82
2024/01/17 05:25:53;;;;;;;14.17;6.83;;;-3.40;99.90;;;;;;4216726;28;20928;-84
2024/01/17 05:27:55;;;;;;;21.27;7.97;;;-3.00;99.90;;;;;;4196612;28;20490;-83
2024/01/17 05:29:59;;;;;;;17.13;6.93;;;-3.00;99.90;;;;;;4215736;28;20490;-83
2024/01/17 05:32:01;;;;;;;16.97;7.33;;;-2.80;99.90;;;;;;4195031;28;20991;-83
2024/01/17 05:34:03;;;;;;;15.10;6.43;;;-3.00;99.90;;;;;;4196972;28;20468;-84
2024/01/17 05:36:06;;;;;;;13.80;6.77;;;-3.10;99.90;;;;;;4190361;28;20556;-84
2024/01/17 05:38:08;;;;;;;18.13;6.43;;;-3.40;99.90;;;;;;4213798;28;20471;-83
2024/01/17 05:40:12;;;;;;;16.37;7.50;;;-3.00;99.90;;;;;;4197530;28;20474;-83
2024/01/17 05:42:14;;;;;;;13.97;6.87;;;-3.40;99.90;;;;;;4195097;28;21211;-83
2024/01/17 05:44:16;;;;;;;15.97;7.20;;;-3.40;99.90;;;;;;4213781;28;20500;-82
2024/01/17 05:46:18;;;;;;;23.23;6.70;;;-3.40;99.90;;;;;;4195375;28;20487;-84
2024/01/17 05:48:20;;;;;;;25.53;7.83;;;-3.50;99.90;;;;;;4188295;28;20459;-83
2024/01/17 05:50:25;;;;;;;26.00;8.77;;;-3.00;99.90;;;;;;4189090;28;20922;-84
2024/01/17 05:52:26;;;;;;;17.97;7.53;;;-3.40;99.90;;;;;;4194827;28;20466;-82
2024/01/17 05:54:28;;;;;;;16.03;7.07;;;-3.40;99.90;;;;;;4212723;28;20857;-83
2024/01/17 05:56:31;;;;;;;21.67;7.70;;;-2.40;99.90;;;;;;4190678;28;20316;-83
2024/01/17 05:58:35;;;;;;;14.83;6.53;;;-3.40;99.90;;;;;;4193411;28;20507;-84
2024/01/17 06:00:40;;;;;;;17.20;7.03;;;-2.90;99.90;;;;;;4211686;28;20951;-82
2024/01/17 06:02:43;;;;;;;18.17;6.80;;;-3.40;99.90;;;;;;4195975;28;20452;-81
2024/01/17 06:04:47;;;;;;;18.97;7.67;;;-3.40;99.90;;;;;;4211405;28;20440;-82
2024/01/17 06:06:48;;;;;;;15.97;6.63;;;-3.40;99.90;;;;;;4214874;28;20474;-82
2024/01/17 06:08:50;;;;;;;16.50;7.20;;;-3.40;99.90;;;;;;4214197;28;20452;-83
2024/01/17 06:10:52;;;;;;;17.10;7.43;;;-3.40;99.90;;;;;;4195924;28;20992;-82
2024/01/17 06:12:55;;;;;;;16.80;7.63;;;-3.40;99.90;;;;;;4196716;28;20509;-82
2024/01/17 06:14:56;;;;;;;19.00;7.10;;;-3.10;99.90;;;;;;4213738;28;20501;-83
2024/01/17 06:16:58;;;;;;;16.77;7.77;;;-3.10;99.90;;;;;;4198127;28;20523;-84
2024/01/17 06:19:00;;;;;;;16.73;7.87;;;-3.40;99.90;;;;;;4196857;28;21284;-84
2024/01/17 06:21:02;;;;;;;17.87;7.53;;;-3.40;99.90;;;;;;4193660;28;20524;-79
2024/01/17 06:23:07;;;;;;;15.23;7.23;;;-3.40;99.90;;;;;;4195367;28;20462;-83
2024/01/17 06:25:09;;;;;;;14.10;6.63;;;-3.40;99.90;;;;;;4212136;28;20548;-84
2024/01/17 06:27:11;;;;;;;17.07;7.80;;;-2.40;99.90;;;;;;4195872;28;20468;-85
2024/01/17 06:29:14;;;;;;;17.70;7.57;;;-2.50;99.90;;;;;;4217652;28;20461;-85
2024/01/17 06:31:22;;;;;;;14.73;7.07;;;-3.40;99.90;;;;;;4194782;28;20445;-84
2024/01/17 06:33:24;;;;;;;21.53;8.10;;;-2.90;99.90;;;;;;4196000;28;20455;-82
2024/01/17 06:35:26;;;;;;;21.20;8.17;;;-3.60;99.90;;;;;;4210181;28;20444;-82
2024/01/17 06:37:28;;;;;;;16.17;7.23;;;-3.40;99.90;;;;;;4195046;28;20481;-84
2024/01/17 06:39:29;;;;;;;16.80;7.67;;;-2.90;99.90;;;;;;4197246;28;20452;-84
2024/01/17 06:41:31;;;;;;;15.30;7.13;;;-3.40;99.90;;;;;;4197442;28;20444;-84
2024/01/17 06:43:32;;;;;;;21.03;7.67;;;-2.90;99.90;;;;;;4195797;28;20242;-82
2024/01/17 06:45:36;;;;;;;17.73;6.90;;;-3.00;99.90;;;;;;4214290;28;20472;-83
2024/01/17 06:47:38;;;;;;;23.07;8.33;;;-2.80;99.90;;;;;;4197814;28;20567;-84
2024/01/17 06:49:41;;;;;;;20.27;8.20;;;-3.40;99.90;;;;;;4214720;28;20440;-84
2024/01/17 06:51:43;;;;;;;22.47;7.80;;;-3.40;99.90;;;;;;4191295;28;20471;-84
2024/01/17 06:53:45;;;;;;;19.50;7.40;;;-2.80;99.90;;;;;;4215806;28;20470;-85
2024/01/17 06:55:47;;;;;;;16.70;7.80;;;-3.40;99.90;;;;;;4196218;28;20451;-84
2024/01/17 06:57:49;;;;;;;15.73;6.90;;;-3.40;99.90;;;;;;4199020;28;20541;-84
2024/01/17 06:59:50;;;;;;;14.63;6.70;;;-3.30;99.90;;;;;;4216801;28;20451;-84
2024/01/17 07:01:55;;;;;;;14.00;6.00;;;-3.30;99.90;;;;;;4196434;28;20482;-85
2024/01/17 07:03:56;;;;;;;17.20;7.00;;;-3.30;99.90;;;;;;4215073;28;20482;-83
2024/01/17 07:05:59;;;;;;;12.73;6.37;;;-2.70;99.90;;;;;;4208366;28;20486;-84
2024/01/17 07:08:00;;;;;;;17.00;6.30;;;-3.20;99.90;;;;;;4197989;28;20472;-84
2024/01/17 07:10:03;;;;;;;14.13;6.53;;;-3.20;99.90;;;;;;4198698;28;20542;-83
2024/01/17 07:12:05;;;;;;;15.10;6.43;;;-3.20;99.90;;;;;;4210801;28;20443;-83
2024/01/17 07:14:07;;;;;;;14.73;6.70;;;-3.20;99.90;;;;;;4214930;28;20451;-82
2024/01/17 07:16:09;;;;;;;14.27;6.30;;;-3.20;99.90;;;;;;4212903;28;20912;-83
2024/01/17 07:18:13;;;;;;;16.03;6.47;;;-3.10;99.90;;;;;;4196573;28;20451;-84
2024/01/17 07:20:16;;;;;;;14.30;6.67;;;-3.10;99.90;;;;;;4214131;28;21161;-82
2024/01/17 07:22:18;;;;;;;14.27;6.03;;;-3.10;99.90;;;;;;4199659;28;20448;-83
2024/01/17 07:24:20;;;;;;;17.13;6.80;;;-3.10;99.90;;;;;;4197543;28;20448;-83
2024/01/17 07:26:21;;;;;;;13.93;6.07;;;-2.80;99.90;;;;;;4214694;28;20521;-83
2024/01/17 07:28:23;;;;;;;17.00;6.80;;;-3.10;99.90;;;;;;4198672;28;20960;-83
2024/01/17 07:30:24;;;;;;;16.67;6.80;;;-3.10;99.90;;;;;;4212287;28;20279;-84
2024/01/17 07:32:26;;;;;;;18.37;8.20;;;-2.20;99.90;;;;;;4202295;28;20432;-82
2024/01/17 07:34:30;;;;;;;25.97;9.37;;;-3.10;99.90;;;;;;4207598;28;20441;-84
2024/01/17 07:36:32;;;;;;;14.57;6.63;;;-2.90;99.90;;;;;;4220606;28;20463;-84
2024/01/17 07:38:34;;;;;;;18.30;6.90;;;-3.10;99.90;;;;;;4201940;28;21062;-84
2024/01/17 07:40:35;;;;;;;17.03;7.00;;;-2.40;99.90;;;;;;4203607;28;20464;-83
2024/01/17 07:42:37;;;;;;;15.90;6.27;;;-3.10;99.90;;;;;;4220339;28;20478;-84
2024/01/17 07:44:39;;;;;;;18.30;6.93;;;-3.20;99.90;;;;;;4225526;28;20207;-84
2024/01/17 07:46:40;;;;;;;12.77;6.13;;;-3.10;99.90;;;;;;4212201;28;20476;-84
2024/01/17 07:48:43;;;;;;;14.70;6.67;;;-3.10;99.90;;;;;;4229384;28;20435;-84
2024/01/17 07:50:48;;;;;;;15.90;7.03;;;-2.50;99.90;;;;;;4208111;28;20453;-84
2024/01/17 07:52:50;;;;;;;16.20;6.63;;;-3.10;99.90;;;;;;4196414;28;20492;-83
2024/01/17 07:54:52;;;;;;;18.80;6.40;;;-2.30;99.90;;;;;;4197287;28;20892;-84
2024/01/17 07:56:55;;;;;;;17.50;7.13;;;-3.10;99.90;;;;;;4201683;28;20587;-84
2024/01/17 07:58:57;;;;;;;14.47;6.07;;;-2.50;99.90;;;;;;4218613;28;20439;-84
2024/01/17 08:01:00;;;;;;;15.87;6.70;;;-2.60;99.90;;;;;;4201450;28;21060;-84
2024/01/17 08:03:02;;;;;;;15.67;6.30;;;-2.60;99.90;;;;;;4201531;28;20495;-84
2024/01/17 08:05:04;;;;;;;16.63;5.80;;;-3.00;99.90;;;;;;4202059;28;20866;-84
2024/01/17 08:07:08;;;;;;;12.93;5.77;;;-3.00;99.90;;;;;;4196866;28;20481;-83
2024/01/17 08:09:20;;;;;;;16.00;6.20;;;-2.80;99.90;;;;;;4198206;28;20526;-84
2024/01/17 08:11:22;;;;;;;16.07;5.93;;;-2.20;99.90;;;;;;4196347;28;20523;-83
2024/01/17 08:13:25;;;;;;;15.83;6.00;;;-2.90;99.90;;;;;;4216773;28;20882;-83
2024/01/17 08:15:27;;;;;;;12.93;6.23;;;-2.80;99.90;;;;;;4216198;28;20505;-84
2024/01/17 08:17:28;;;;;;;13.30;6.07;;;-2.70;99.90;;;;;;4208500;28;20475;-84
2024/01/17 08:19:30;;;;;;;15.73;6.13;;;-2.70;99.90;;;;;;4212915;28;20464;-82
2024/01/17 08:21:32;;;;;;;11.90;5.83;;;-2.70;99.90;;;;;;4198733;28;20257;-83
2024/01/17 08:23:36;;;;;;;12.00;6.00;;;-2.70;99.90;;;;;;4215031;28;20480;-84
2024/01/17 08:25:38;;;;;;;11.73;5.97;;;-2.30;99.90;;;;;;4217611;28;20547;-84
2024/01/17 08:27:39;;;;;;;13.27;5.37;;;-2.60;99.90;;;;;;4220013;28;20474;-84
2024/01/17 08:29:44;;;;;;;14.20;5.80;;;-1.40;99.90;;;;;;4203223;28;21049;-83
2024/01/17 08:31:46;;;;;;;14.40;5.73;;;-1.70;99.90;;;;;;4203819;28;20451;-84
2024/01/17 08:33:47;;;;;;;17.17;6.60;;;-2.50;99.90;;;;;;4203903;28;20458;-83
2024/01/17 08:35:49;;;;;;;12.87;5.40;;;-2.50;99.90;;;;;;4202960;28;21008;-84
2024/01/17 08:37:51;;;;;;;12.30;5.33;;;-2.40;99.90;;;;;;4212648;28;20225;-84
2024/01/17 08:39:54;;;;;;;13.17;5.67;;;-2.20;99.90;;;;;;4222049;28;20451;-83
2024/01/17 08:41:56;;;;;;;13.20;6.23;;;-2.50;99.90;;;;;;4220156;28;20479;-83
2024/01/17 08:43:58;;;;;;;12.90;5.67;;;-2.50;99.90;;;;;;4200247;28;20458;-83
2024/01/17 08:46:01;;;;;;;10.73;5.23;;;-2.40;99.90;;;;;;4201005;28;20467;-83
2024/01/17 08:48:04;;;;;;;12.17;5.57;;;-1.80;99.90;;;;;;4198600;28;20548;-83
2024/01/17 08:50:07;;;;;;;16.00;5.50;;;-2.40;99.90;;;;;;4201000;28;20462;-84
2024/01/17 08:52:09;;;;;;;11.70;5.83;;;-2.40;99.90;;;;;;4197619;28;20447;-84
2024/01/17 08:54:11;;;;;;;15.50;5.70;;;-2.00;99.90;;;;;;4217121;28;20467;-84
2024/01/17 08:56:15;;;;;;;10.80;5.10;;;-2.30;99.90;;;;;;4199425;28;20453;-82
2024/01/17 08:58:17;;;;;;;13.60;5.70;;;-1.60;99.90;;;;;;4209859;28;20648;-80
2024/01/17 09:00:19;;;;;;;15.93;5.40;;;-2.20;99.90;;;;;;4213601;28;20491;-85
2024/01/17 09:02:20;;;;;;;13.63;5.90;;;-2.20;99.90;;;;;;4197134;28;20445;-84
2024/01/17 09:04:23;;;;;;;14.57;6.00;;;-1.30;99.90;;;;;;4196576;28;20453;-84
2024/01/17 09:06:25;;;;;;;14.57;6.03;;;-2.10;99.90;;;;;;4190676;28;20494;-79
2024/01/17 09:08:27;;;;;;;14.77;4.97;;;-2.10;99.90;;;;;;4194860;28;20456;-80
2024/01/17 09:10:30;;;;;;;13.33;6.23;;;-2.00;99.90;;;;;;4209327;28;20500;-79
2024/01/17 09:12:33;;;;;;;10.70;5.33;;;-2.00;99.90;;;;;;4195263;28;20509;-81
2024/01/17 09:14:36;;;;;;;12.23;5.57;;;-1.90;99.90;;;;;;4195393;28;20463;-82
2024/01/17 09:16:36;;;;;;;12.03;5.77;;;-1.90;99.90;;;;;;4208126;28;20523;-78
2024/01/17 09:18:39;;;;;;;13.03;5.53;;;-1.80;99.90;;;;;;4207714;28;20453;-78
2024/01/17 09:20:41;;;;;;;14.77;6.00;;;-1.80;99.90;;;;;;4206846;28;20214;-81
2024/01/17 09:22:43;;;;;;;13.67;5.47;;;-1.70;99.90;;;;;;4207635;28;20438;-85
2024/01/17 09:24:45;;;;;;;13.50;6.23;;;-1.70;99.90;;;;;;4194868;28;20455;-80
2024/01/17 09:26:49;;;;;;;13.07;6.10;;;-1.60;99.90;;;;;;4196941;28;20494;-81
2024/01/17 09:28:52;;;;;;;12.00;5.70;;;-1.30;99.90;;;;;;4199823;28;20502;-81
2024/01/17 09:30:54;;;;;;;14.57;6.37;;;-1.60;99.90;;;;;;4200556;28;20467;-80
2024/01/17 09:32:56;;;;;;;12.03;5.80;;;-1.50;99.90;;;;;;4195634;28;20460;-80
2024/01/17 09:34:58;;;;;;;13.70;5.70;;;-1.40;99.90;;;;;;4199462;28;20497;-81
2024/01/17 09:37:00;;;;;;;12.33;5.93;;;-1.10;99.90;;;;;;4214164;28;20509;-80
2024/01/17 09:39:04;;;;;;;15.43;5.93;;;-1.30;99.90;;;;;;4215162;28;20449;-80
2024/01/17 09:41:05;;;;;;;12.63;5.43;;;-1.30;99.90;;;;;;4201580;28;20457;-80
2024/01/17 09:43:08;;;;;;;13.53;5.70;;;-1.20;99.90;;;;;;4200422;28;20457;-81
2024/01/17 09:45:14;;;;;;;13.80;6.10;;;-0.80;99.90;;;;;;4215667;28;20465;-80
2024/01/17 09:47:19;;;;;;;13.93;5.67;;;-1.10;99.90;;;;;;4217960;28;20494;-80
2024/01/17 09:49:20;;;;;;;11.87;5.70;;;-1.00;99.90;;;;;;4199872;28;20458;-80
2024/01/17 09:51:24;;;;;;;11.93;5.80;;;-1.00;99.90;;;;;;4200496;28;20436;-80
2024/01/17 09:53:30;;;;;;;11.73;5.60;;;-1.00;99.90;;;;;;4199141;28;20458;-80
2024/01/17 09:55:34;;;;;;;12.50;5.93;;;-0.90;99.90;;;;;;4219782;28;20440;-80
2024/01/17 09:57:52;;;;;;;14.53;6.27;;;-0.90;99.90;;;;;;4199750;28;20499;-82
2024/01/17 09:59:58;;;;;;;11.30;5.80;;;-0.80;99.90;;;;;;4200874;28;20465;-82
2024/01/17 10:02:02;;;;;;;14.57;5.87;;;-0.80;99.90;;;;;;4213226;28;20471;-81
2024/01/17 10:04:05;;;;;;;10.53;5.10;;;-0.40;99.90;;;;;;4199269;28;20948;-82
2024/01/17 10:06:08;;;;;;;10.80;5.03;;;-0.70;99.90;;;;;;4198626;28;20466;-82
2024/01/17 10:08:10;;;;;;;10.73;5.43;;;-1.20;99.90;;;;;;4214955;28;20494;-81
2024/01/17 10:10:12;;;;;;;14.13;6.07;;;-0.70;99.90;;;;;;4199416;28;20470;-81
2024/01/17 10:12:18;;;;;;;13.67;5.40;;;-0.30;99.90;;;;;;4191871;28;20982;-82
2024/01/17 10:14:21;;;;;;;11.90;5.80;;;0.30;99.90;;;;;;4215928;28;20440;-81
2024/01/17 10:16:23;;;;;;;12.83;5.50;;;-0.60;99.90;;;;;;4216981;28;20454;-81
2024/01/17 10:18:25;;;;;;;15.00;6.20;;;-0.50;99.90;;;;;;4197011;28;20463;-81
2024/01/17 10:20:27;;;;;;;14.63;5.70;;;-0.50;99.90;;;;;;4215623;28;20607;-81
2024/01/17 10:22:31;;;;;;;13.63;6.27;;;-0.40;99.90;;;;;;4217207;28;20479;-81
2024/01/17 10:24:33;;;;;;;14.60;6.70;;;0.00;99.90;;;;;;4215858;28;20479;-81
2024/01/17 10:26:35;;;;;;;16.10;7.17;;;-0.40;99.90;;;;;;4217240;28;20482;-81
2024/01/17 10:28:36;;;;;;;12.97;6.87;;;-0.30;99.90;;;;;;4221277;28;21173;-82
2024/01/17 10:30:39;;;;;;;15.37;6.13;;;-0.30;99.90;;;;;;4200361;28;20451;-82